createdAt,value
2019-01-29T00:01:32.746Z,97913.60
2019-01-29T00:04:03.717Z,97913.60
2019-01-29T00:06:34.607Z,97942.63
2019-01-29T00:09:09.968Z,97918.09
2019-01-29T00:11:41.786Z,97952.27
2019-01-29T00:14:13.725Z,97919.70
2019-01-29T00:16:45.170Z,97915.95
2019-01-29T00:19:16.600Z,97938.27
2019-01-29T00:21:48.732Z,97974.08
2019-01-29T00:24:19.743Z,97937.50
2019-01-29T00:26:50.708Z,97930.80
2019-01-29T00:29:22.840Z,97935.81
2019-01-29T00:31:57.516Z,97935.50
2019-01-29T00:34:29.836Z,97936.30
2019-01-29T00:37:00.854Z,97957.30
2019-01-29T00:39:31.724Z,97926.55
2019-01-29T00:42:02.913Z,97933.78
2019-01-29T00:44:34.908Z,97933.78
2019-01-29T00:47:06.846Z,97949.78
2019-01-29T00:49:37.928Z,97953.66
2019-01-29T00:52:09.296Z,97945.77
2019-01-29T00:54:39.836Z,97945.77
2019-01-29T00:57:11.006Z,97943.98
2019-01-29T00:59:41.923Z,97978.48
2019-01-29T01:02:12.950Z,97978.48
2019-01-29T01:04:43.890Z,97963.38
2019-01-29T01:07:14.855Z,97972.55
2019-01-29T01:09:45.962Z,97982.27
2019-01-29T01:12:16.732Z,97972.87
2019-01-29T01:14:48.053Z,98002.84
2019-01-29T01:17:20.024Z,97987.67
2019-01-29T01:19:53.231Z,97990.66
2019-01-29T01:22:26.122Z,97996.61
2019-01-29T01:24:57.068Z,97999.47
2019-01-29T01:27:29.017Z,98002.02
2019-01-29T01:30:00.049Z,97992.25
2019-01-29T01:32:33.096Z,97992.67
2019-01-29T01:35:03.944Z,98006.56
2019-01-29T01:37:34.895Z,98015.80
2019-01-29T01:40:08.596Z,98010.72
2019-01-29T01:42:40.178Z,97996.09
2019-01-29T01:45:11.282Z,97996.09
2019-01-29T01:47:44.110Z,98018.41
2019-01-29T01:50:15.430Z,98014.20
2019-01-29T01:52:48.396Z,98026.84
2019-01-29T01:55:20.362Z,98016.70
2019-01-29T01:57:52.993Z,98035.20
2019-01-29T02:00:26.323Z,98035.20
2019-01-29T02:02:59.089Z,98029.28
2019-01-29T02:05:29.952Z,98058.36
2019-01-29T02:08:00.969Z,98058.36
2019-01-29T02:10:31.774Z,98059.96
2019-01-29T02:13:02.957Z,98036.44
2019-01-29T02:15:33.302Z,98043.56
2019-01-29T02:18:04.635Z,98041.85
2019-01-29T02:20:35.654Z,98043.56
2019-01-29T02:23:08.167Z,98043.56
2019-01-29T02:25:40.335Z,98051.05
2019-01-29T02:28:11.284Z,98048.92
2019-01-29T02:30:42.509Z,98054.39
2019-01-29T02:33:13.399Z,98048.41
2019-01-29T02:35:44.202Z,98050.09
2019-01-29T02:38:15.410Z,98061.04
2019-01-29T02:40:46.303Z,98076.20
2019-01-29T02:43:16.717Z,98065.61
2019-01-29T02:45:48.369Z,98065.61
2019-01-29T02:48:20.367Z,98072.75
2019-01-29T02:50:53.427Z,98072.78
2019-01-29T02:53:24.411Z,98084.97
2019-01-29T02:55:57.417Z,98076.50
2019-01-29T02:58:28.532Z,98077.80
2019-01-29T03:01:00.502Z,98082.44
2019-01-29T03:03:31.589Z,98084.03
2019-01-29T03:06:04.622Z,98081.14
2019-01-29T03:08:35.586Z,98103.95
2019-01-29T03:11:06.580Z,98093.45
2019-01-29T03:13:37.532Z,98093.45
2019-01-29T03:16:09.613Z,98100.59
2019-01-29T03:18:42.604Z,98114.52
2019-01-29T03:21:13.452Z,98114.52
2019-01-29T03:23:44.419Z,98111.60
2019-01-29T03:26:15.334Z,98111.60
2019-01-29T03:28:46.346Z,98121.66
2019-01-29T03:31:18.451Z,98121.66
2019-01-29T03:33:53.107Z,98122.53
2019-01-29T03:36:24.441Z,98131.32
2019-01-29T03:38:55.634Z,98133.09
2019-01-29T03:41:27.752Z,98139.04
2019-01-29T03:44:00.566Z,98139.04
2019-01-29T03:46:31.713Z,98151.20
2019-01-29T03:49:02.655Z,98160.92
2019-01-29T03:51:33.565Z,98147.47
2019-01-29T03:54:04.776Z,98145.72
2019-01-29T03:56:37.350Z,98145.72
2019-01-29T03:59:09.590Z,98156.34
2019-01-29T04:01:39.958Z,98173.16
2019-01-29T04:04:10.661Z,98169.80
2019-01-29T04:06:43.417Z,98169.80
2019-01-29T04:09:14.048Z,98160.55
2019-01-29T04:11:46.630Z,98162.23
2019-01-29T04:14:16.983Z,98167.30
2019-01-29T04:16:48.709Z,98190.44
2019-01-29T04:19:20.342Z,98190.44
2019-01-29T04:21:51.267Z,98185.44
2019-01-29T04:24:21.810Z,98190.45
2019-01-29T04:26:52.875Z,98194.20
2019-01-29T04:29:24.281Z,98182.45
2019-01-29T04:31:54.746Z,98182.45
2019-01-29T04:34:25.821Z,98193.88
2019-01-29T04:36:56.165Z,98192.56
2019-01-29T04:39:27.150Z,98201.02
2019-01-29T04:42:01.500Z,98190.94
2019-01-29T04:44:32.975Z,98207.83
2019-01-29T04:47:03.876Z,98199.35
2019-01-29T04:49:34.896Z,98221.66
2019-01-29T04:52:05.948Z,98209.84
2019-01-29T04:54:36.962Z,98219.13
2019-01-29T04:57:07.879Z,98211.55
2019-01-29T04:59:39.052Z,98216.16
2019-01-29T05:02:09.546Z,98220.38
2019-01-29T05:04:40.081Z,98213.23
2019-01-29T05:07:10.911Z,98217.94
2019-01-29T05:09:42.055Z,98240.63
2019-01-29T05:12:12.974Z,98240.63
2019-01-29T05:14:43.915Z,98245.73
2019-01-29T05:17:15.067Z,98245.73
2019-01-29T05:19:46.024Z,98253.69
2019-01-29T05:22:16.973Z,98260.47
2019-01-29T05:24:48.151Z,98275.19
2019-01-29T05:27:19.595Z,98273.09
2019-01-29T05:29:51.010Z,98287.44
2019-01-29T05:32:22.126Z,98289.95
2019-01-29T05:34:53.110Z,98280.30
2019-01-29T05:37:24.022Z,98300.53
2019-01-29T05:39:55.198Z,98278.61
2019-01-29T05:42:26.092Z,98292.52
2019-01-29T05:44:57.246Z,98297.59
2019-01-29T05:47:28.173Z,98296.75
2019-01-29T05:49:59.171Z,98300.15
2019-01-29T05:52:30.155Z,98315.75
2019-01-29T05:55:01.153Z,98302.70
2019-01-29T05:57:32.272Z,98315.38
2019-01-29T06:00:03.386Z,98318.32
2019-01-29T06:02:34.289Z,98334.73
2019-01-29T06:05:06.706Z,98334.73
2019-01-29T06:07:37.132Z,98328.83
2019-01-29T06:10:10.703Z,98342.77
2019-01-29T06:12:42.193Z,98333.50
2019-01-29T06:15:16.731Z,98338.56
2019-01-29T06:17:49.273Z,98342.34
2019-01-29T06:20:22.232Z,98344.05
2019-01-29T06:22:54.305Z,98350.78
2019-01-29T06:25:25.549Z,98348.67
2019-01-29T06:27:56.347Z,98375.63
2019-01-29T06:30:27.630Z,98364.65
2019-01-29T06:32:58.387Z,98362.98
2019-01-29T06:35:29.303Z,98376.02
2019-01-29T06:38:01.879Z,98374.73
2019-01-29T06:40:34.293Z,98379.36
2019-01-29T06:43:07.495Z,98379.77
2019-01-29T06:45:38.417Z,98388.16
2019-01-29T06:48:09.449Z,98392.79
2019-01-29T06:50:40.500Z,98399.11
2019-01-29T06:53:11.485Z,98409.20
2019-01-29T06:55:42.435Z,98400.77
2019-01-29T06:58:13.565Z,98406.61
2019-01-29T07:00:44.633Z,98411.64
2019-01-29T07:03:15.611Z,98411.64
2019-01-29T07:05:46.464Z,98410.36
2019-01-29T07:08:17.171Z,98415.37
2019-01-29T07:10:48.556Z,98426.69
2019-01-29T07:13:20.558Z,98428.80
2019-01-29T07:16:12.530Z,98434.25
2019-01-29T07:18:46.559Z,98438.03
2019-01-29T07:21:16.973Z,98438.03
2019-01-29T07:23:47.646Z,98443.98
2019-01-29T07:26:18.516Z,98443.98
2019-01-29T07:28:49.554Z,98459.92
2019-01-29T07:31:20.547Z,98459.92
2019-01-29T07:33:51.488Z,98463.23
2019-01-29T07:36:22.629Z,98456.52
2019-01-29T07:38:53.403Z,98482.69
2019-01-29T07:41:23.765Z,98470.84
2019-01-29T07:43:54.621Z,98471.23
2019-01-29T07:46:26.020Z,98480.86
2019-01-29T07:48:56.730Z,98480.86
2019-01-29T07:51:27.974Z,98488.79
2019-01-29T07:53:59.289Z,98493.02
2019-01-29T07:56:29.875Z,98500.61
2019-01-29T07:59:00.733Z,98494.28
2019-01-29T08:01:31.570Z,98504.37
2019-01-29T08:04:02.651Z,98504.37
2019-01-29T08:06:33.488Z,98512.95
2019-01-29T08:09:05.740Z,98521.85
2019-01-29T08:11:38.862Z,98521.85
2019-01-29T08:14:09.828Z,98522.72
2019-01-29T08:16:40.214Z,98513.07
2019-01-29T08:19:10.864Z,98506.80
2019-01-29T08:21:41.940Z,98513.89
2019-01-29T08:24:14.603Z,98537.86
2019-01-29T08:26:46.947Z,98541.23
2019-01-29T08:29:17.320Z,98542.00
2019-01-29T08:31:48.829Z,98520.36
2019-01-29T08:34:20.997Z,98541.06
2019-01-29T08:36:53.984Z,98528.30
2019-01-29T08:39:27.015Z,98528.30
2019-01-29T08:41:58.966Z,98531.22
2019-01-29T08:44:29.949Z,98536.83
2019-01-29T08:47:00.918Z,98538.56
2019-01-29T08:49:32.099Z,98531.88
2019-01-29T08:52:02.900Z,98537.36
2019-01-29T08:54:33.920Z,98549.67
2019-01-29T08:57:06.609Z,98549.67
2019-01-29T08:59:38.723Z,98580.47
2019-01-29T09:02:09.104Z,98580.47
2019-01-29T09:04:45.097Z,98568.09
2019-01-29T09:07:17.271Z,98568.09
2019-01-29T09:09:49.063Z,98581.56
2019-01-29T09:12:21.042Z,98581.56
2019-01-29T09:14:53.053Z,98566.37
2019-01-29T09:17:24.021Z,98563.34
2019-01-29T09:19:56.015Z,98563.34
2019-01-29T09:22:28.130Z,98629.58
2019-01-29T09:25:01.077Z,98629.58
2019-01-29T09:27:34.129Z,98586.13
2019-01-29T09:30:06.836Z,98576.33
2019-01-29T09:32:39.097Z,98598.25
2019-01-29T09:35:10.327Z,98593.94
2019-01-29T09:37:41.207Z,98610.34
2019-01-29T09:40:14.834Z,98615.88
2019-01-29T09:42:46.209Z,98615.88
2019-01-29T09:45:18.261Z,98620.88
2019-01-29T09:47:51.280Z,98680.07
2019-01-29T09:50:24.177Z,98644.71
2019-01-29T09:52:55.399Z,98632.89
2019-01-29T09:55:29.558Z,98632.89
2019-01-29T09:58:01.363Z,98625.76
2019-01-29T10:00:34.391Z,98625.76
2019-01-29T10:03:06.461Z,98621.05
2019-01-29T10:05:37.435Z,98624.41
2019-01-29T10:08:08.429Z,98625.67
2019-01-29T10:10:39.379Z,98613.00
2019-01-29T10:13:10.310Z,98623.16
2019-01-29T10:15:41.276Z,98626.94
2019-01-29T10:18:12.405Z,98619.70
2019-01-29T10:20:43.319Z,98619.70
2019-01-29T10:23:14.400Z,98634.45
2019-01-29T10:25:45.476Z,98634.45
2019-01-29T10:28:17.353Z,98610.38
2019-01-29T10:30:49.370Z,98610.38
2019-01-29T10:33:20.486Z,98615.00
2019-01-29T10:35:51.463Z,98610.83
2019-01-29T10:38:23.412Z,98608.06
2019-01-29T10:40:56.417Z,98608.06
2019-01-29T10:43:27.438Z,98608.06
2019-01-29T10:45:58.619Z,98602.08
2019-01-29T10:48:29.490Z,98600.42
2019-01-29T10:51:00.543Z,98600.42
2019-01-29T10:53:33.595Z,98599.53
2019-01-29T10:56:04.502Z,98597.41
2019-01-29T10:58:38.734Z,98594.51
2019-01-29T11:01:09.701Z,98628.34
2019-01-29T11:03:40.712Z,98588.14
2019-01-29T11:06:11.516Z,98588.49
2019-01-29T11:08:42.578Z,98587.52
2019-01-29T11:11:13.484Z,98578.89
2019-01-29T11:13:44.511Z,98588.98
2019-01-29T11:16:15.468Z,98569.69
2019-01-29T11:18:46.561Z,98571.09
2019-01-29T11:21:17.615Z,98569.38
2019-01-29T11:23:48.367Z,98569.38
2019-01-29T11:26:19.237Z,98564.55
2019-01-29T11:28:49.734Z,98560.72
2019-01-29T11:31:20.715Z,98561.59
2019-01-29T11:33:51.747Z,98564.91
2019-01-29T11:36:23.041Z,98558.70
2019-01-29T11:38:53.639Z,98585.77
2019-01-29T11:41:24.822Z,98576.19
2019-01-29T11:43:55.857Z,98582.16
2019-01-29T11:46:26.711Z,98580.86
2019-01-29T11:49:02.702Z,98591.34
2019-01-29T11:51:48.286Z,98580.07
2019-01-29T11:54:20.859Z,98583.87
2019-01-29T11:56:51.811Z,98596.99
2019-01-29T11:59:23.793Z,98581.25
2019-01-29T12:01:55.779Z,98594.88
2019-01-29T12:04:27.843Z,98580.11
2019-01-29T12:07:00.861Z,98578.62
2019-01-29T12:09:32.033Z,98582.55
2019-01-29T12:12:02.952Z,98584.66
2019-01-29T12:14:35.853Z,98585.94
2019-01-29T12:17:07.814Z,98580.52
2019-01-29T12:19:38.959Z,98582.14
2019-01-29T12:22:10.229Z,98583.60
2019-01-29T12:24:40.924Z,98592.91
2019-01-29T12:27:11.909Z,98579.09
2019-01-29T12:29:42.959Z,98582.13
2019-01-29T12:32:13.893Z,98579.41
2019-01-29T12:34:44.719Z,98578.56
2019-01-29T12:37:25.368Z,98574.64
2019-01-29T12:39:59.501Z,98592.30
2019-01-29T12:42:30.016Z,98578.95
2019-01-29T12:45:03.190Z,98576.80
2019-01-29T12:47:34.014Z,98580.36
2019-01-29T12:50:08.415Z,98576.55
2019-01-29T12:52:57.495Z,98570.98
2019-01-29T12:55:29.181Z,98572.28
2019-01-29T12:58:00.158Z,98581.31
2019-01-29T13:00:36.138Z,98568.08
2019-01-29T13:03:11.354Z,98568.30
2019-01-29T13:05:41.804Z,98564.36
2019-01-29T13:08:12.321Z,98563.71
2019-01-29T13:10:43.224Z,98563.23
2019-01-29T13:13:14.262Z,98569.08
2019-01-29T13:15:45.067Z,98569.87
2019-01-29T13:18:16.277Z,98562.13
2019-01-29T13:20:47.248Z,98578.03
2019-01-29T13:23:17.622Z,98560.86
2019-01-29T13:25:49.243Z,98561.37
2019-01-29T13:28:20.323Z,98570.92
2019-01-29T13:30:51.185Z,98563.70
2019-01-29T13:33:22.161Z,98571.06
2019-01-29T13:35:53.199Z,98557.15
2019-01-29T13:38:24.075Z,98564.19
2019-01-29T13:40:55.119Z,98557.15
2019-01-29T13:43:26.218Z,98557.73
2019-01-29T13:45:57.290Z,98557.55
2019-01-29T13:48:28.251Z,98557.25
2019-01-29T13:51:00.887Z,98562.45
2019-01-29T13:53:33.399Z,98559.82
2019-01-29T13:56:04.368Z,98558.94
2019-01-29T13:58:35.357Z,98561.17
2019-01-29T14:01:06.707Z,98564.52
2019-01-29T14:03:37.394Z,98563.78
2019-01-29T14:06:11.407Z,98557.12
2019-01-29T14:08:42.441Z,98559.54
2019-01-29T14:11:13.462Z,98555.64
2019-01-29T14:13:44.524Z,98544.63
2019-01-29T14:16:15.420Z,98562.08
2019-01-29T14:18:46.567Z,98564.21
2019-01-29T14:21:17.550Z,98567.21
2019-01-29T14:23:48.518Z,98563.20
2019-01-29T14:26:21.535Z,98561.78
2019-01-29T14:28:54.559Z,98558.02
2019-01-29T14:31:27.500Z,98566.08
2019-01-29T14:34:02.157Z,98569.02
2019-01-29T14:36:34.598Z,98570.66
2019-01-29T14:39:53.811Z,98568.08
2019-01-29T14:42:24.488Z,98567.73
2019-01-29T14:44:57.195Z,98567.84
2019-01-29T14:47:29.447Z,98566.16
2019-01-29T14:50:01.716Z,98568.33
2019-01-29T14:52:34.633Z,98571.04
2019-01-29T14:55:06.878Z,98578.80
2019-01-29T14:57:41.103Z,98582.20
2019-01-29T15:00:19.969Z,98590.48
2019-01-29T15:02:51.709Z,98581.22
2019-01-29T15:05:24.655Z,98583.73
2019-01-29T15:07:55.689Z,98585.33
2019-01-29T15:10:27.844Z,98584.55
2019-01-29T15:12:58.740Z,98579.61
2019-01-29T15:15:33.389Z,98577.84
2019-01-29T15:18:13.530Z,98580.52
2019-01-29T15:20:44.891Z,98580.36
2019-01-29T15:23:16.833Z,98578.91
2019-01-29T15:25:48.025Z,98578.59
2019-01-29T15:28:18.347Z,98574.55
2019-01-29T15:30:49.646Z,98576.27
2019-01-29T15:33:20.772Z,98578.75
2019-01-29T15:35:51.857Z,98573.13
2019-01-29T15:38:24.794Z,98580.84
2019-01-29T15:40:55.942Z,98582.65
2019-01-29T15:43:26.858Z,98585.28
2019-01-29T15:45:59.023Z,98582.84
2019-01-29T15:48:29.842Z,98584.15
2019-01-29T15:51:01.318Z,98576.65
2019-01-29T15:53:32.273Z,98572.11
2019-01-29T15:56:02.894Z,98572.11
2019-01-29T15:58:33.823Z,98573.41
2019-01-29T16:01:04.886Z,98573.41
2019-01-29T16:03:36.002Z,98573.03
2019-01-29T16:06:06.770Z,98575.55
2019-01-29T16:08:37.942Z,98570.07
2019-01-29T16:11:10.240Z,98571.36
2019-01-29T16:13:42.883Z,98576.43
2019-01-29T16:16:14.187Z,98571.36
2019-01-29T16:18:45.121Z,98574.73
2019-01-29T16:21:15.936Z,98573.47
2019-01-29T16:23:47.044Z,98572.20
2019-01-29T16:26:17.860Z,98574.73
2019-01-29T16:28:51.046Z,98574.73
2019-01-29T16:31:24.074Z,98571.80
2019-01-29T16:33:56.923Z,98573.47
2019-01-29T16:36:28.096Z,98565.91
2019-01-29T16:39:00.123Z,98577.27
2019-01-29T16:41:33.107Z,98575.59
2019-01-29T16:44:04.164Z,98579.81
2019-01-29T16:46:37.184Z,98576.02
2019-01-29T16:49:08.051Z,98577.68
2019-01-29T16:51:42.166Z,98583.15
2019-01-29T16:54:12.754Z,98570.94
2019-01-29T16:56:44.309Z,98573.05
2019-01-29T16:59:16.246Z,98564.20
2019-01-29T17:01:49.216Z,98567.11
2019-01-29T17:04:20.101Z,98557.84
2019-01-29T17:06:51.254Z,98560.80
2019-01-29T17:09:24.365Z,98553.64
2019-01-29T17:11:56.338Z,98566.67
2019-01-29T17:14:27.375Z,98562.05
2019-01-29T17:16:58.253Z,98564.14
2019-01-29T17:19:28.621Z,98565.38
2019-01-29T17:22:01.198Z,98564.12
2019-01-29T17:24:31.564Z,98563.28
2019-01-29T17:27:03.367Z,98557.80
2019-01-29T17:29:35.282Z,98561.98
2019-01-29T17:32:07.354Z,98563.64
2019-01-29T17:34:40.315Z,98560.30
2019-01-29T17:37:12.294Z,98560.34
2019-01-29T17:39:44.083Z,98562.83
2019-01-29T17:42:14.473Z,98563.23
2019-01-29T17:44:45.439Z,98554.83
2019-01-29T17:47:16.383Z,98561.97
2019-01-29T17:49:47.669Z,98557.33
2019-01-29T17:52:18.276Z,98549.33
2019-01-29T17:54:49.688Z,98551.84
2019-01-29T17:57:20.424Z,98554.70
2019-01-29T17:59:51.507Z,98553.84
2019-01-29T18:02:24.158Z,98554.25
2019-01-29T18:04:56.588Z,98558.45
2019-01-29T18:07:27.545Z,98559.20
2019-01-29T18:09:58.422Z,98561.37
2019-01-29T18:12:29.563Z,98561.35
2019-01-29T18:15:00.563Z,98565.12
2019-01-29T18:17:33.224Z,98565.80
2019-01-29T18:20:05.920Z,98562.69
2019-01-29T18:22:36.569Z,98563.58
2019-01-29T18:25:08.004Z,98561.89
2019-01-29T18:27:38.619Z,98566.23
2019-01-29T18:30:13.053Z,98562.41
2019-01-29T18:32:43.800Z,98568.26
2019-01-29T18:35:14.778Z,98559.83
2019-01-29T18:37:47.627Z,98558.05
2019-01-29T18:40:23.500Z,98566.29
2019-01-29T18:42:55.738Z,98563.72
2019-01-29T18:45:26.927Z,98558.87
2019-01-29T18:47:57.725Z,98558.00
2019-01-29T18:50:29.061Z,98556.33
2019-01-29T18:52:59.701Z,98558.56
2019-01-29T18:55:30.578Z,98553.13
2019-01-29T18:58:11.200Z,98553.95
2019-01-29T19:00:35.812Z,98551.50
2019-01-29T19:03:06.857Z,98550.20
2019-01-29T19:05:37.764Z,98547.71
2019-01-29T19:08:08.776Z,98544.28
2019-01-29T19:10:40.172Z,98542.98
2019-01-29T19:13:12.908Z,98540.35
2019-01-29T19:15:43.802Z,98536.55
2019-01-29T19:18:14.843Z,98540.33
2019-01-29T19:20:45.705Z,98539.87
2019-01-29T19:23:16.881Z,98543.98
2019-01-29T19:25:47.853Z,98546.02
2019-01-29T19:28:22.053Z,98545.53
2019-01-29T19:30:53.024Z,98548.11
2019-01-29T19:33:24.815Z,98547.28
2019-01-29T19:35:57.887Z,98543.98
2019-01-29T19:38:28.815Z,98543.48
2019-01-29T19:40:59.742Z,98535.73
2019-01-29T19:43:30.581Z,98536.90
2019-01-29T19:46:00.976Z,98530.48
2019-01-29T19:48:32.475Z,98534.34
2019-01-29T19:51:02.878Z,98525.23
2019-01-29T19:53:34.338Z,98525.17
2019-01-29T19:56:05.190Z,98519.64
2019-01-29T19:58:36.235Z,98523.28
2019-01-29T20:01:07.111Z,98522.33
2019-01-29T20:03:38.134Z,98517.98
2019-01-29T20:06:08.794Z,98519.89
2019-01-29T20:08:39.635Z,98515.12
2019-01-29T20:11:10.608Z,98509.94
2019-01-29T20:13:42.150Z,98505.23
2019-01-29T20:16:12.526Z,98509.85
2019-01-29T20:18:43.138Z,98514.03
2019-01-29T20:21:14.346Z,98508.11
2019-01-29T20:23:45.446Z,98503.77
2019-01-29T20:26:16.106Z,98504.84
2019-01-29T20:28:49.540Z,98497.98
2019-01-29T20:31:22.057Z,98498.23
2019-01-29T20:33:55.196Z,98497.34
2019-01-29T20:36:26.102Z,98496.84
2019-01-29T20:38:57.149Z,98502.61
2019-01-29T20:41:28.066Z,98499.25
2019-01-29T20:43:59.136Z,98502.66
2019-01-29T20:46:29.611Z,98509.28
2019-01-29T20:49:02.475Z,98510.44
2019-01-29T20:51:33.253Z,98506.56
2019-01-29T20:54:06.289Z,98505.98
2019-01-29T20:56:36.856Z,98510.94
2019-01-29T20:59:07.429Z,98501.95
2019-01-29T21:01:39.913Z,98495.89
2019-01-29T21:04:12.276Z,98495.39
2019-01-29T21:06:45.201Z,98486.96
2019-01-29T21:09:16.666Z,98489.78
2019-01-29T21:11:48.447Z,98483.44
2019-01-29T21:14:18.821Z,98489.27
2019-01-29T21:16:50.267Z,98485.44
2019-01-29T21:19:21.469Z,98480.73
2019-01-29T21:21:51.916Z,98484.55
2019-01-29T21:24:23.884Z,98483.34
2019-01-29T21:26:54.449Z,98490.41
2019-01-29T21:29:25.898Z,98487.39
2019-01-29T21:31:56.561Z,98491.51
2019-01-29T21:34:27.719Z,98485.00
2019-01-29T21:36:58.415Z,98488.56
2019-01-29T21:39:29.501Z,98479.39
2019-01-29T21:42:00.457Z,98478.18
2019-01-29T21:44:31.364Z,98480.09
2019-01-29T21:47:02.332Z,98475.17
2019-01-29T21:49:33.326Z,98466.08
2019-01-29T21:52:04.332Z,98467.65
2019-01-29T21:54:35.161Z,98468.00
2019-01-29T21:57:06.149Z,98459.97
2019-01-29T21:59:37.111Z,98461.98
2019-01-29T22:02:07.649Z,98458.97
2019-01-29T22:04:38.506Z,98461.98
2019-01-29T22:07:10.539Z,98465.80
2019-01-29T22:09:42.540Z,98459.92
2019-01-29T22:12:14.612Z,98462.79
2019-01-29T22:14:45.561Z,98464.48
2019-01-29T22:17:16.510Z,98461.54
2019-01-29T22:19:47.596Z,98459.58
2019-01-29T22:22:18.262Z,98451.69
2019-01-29T22:24:49.595Z,98452.09
2019-01-29T22:27:21.590Z,98450.48
2019-01-29T22:29:54.567Z,98440.02
2019-01-29T22:32:25.491Z,98433.69
2019-01-29T22:34:58.636Z,98440.31
2019-01-29T22:37:30.658Z,98434.45
2019-01-29T22:40:01.637Z,98433.19
2019-01-29T22:42:33.823Z,98427.69
2019-01-29T22:45:08.291Z,98438.98
2019-01-29T22:47:40.802Z,98435.26
2019-01-29T22:50:15.000Z,98421.69
2019-01-29T22:52:45.807Z,98411.42
2019-01-29T22:55:16.806Z,98413.25
2019-01-29T22:57:49.781Z,98416.80
2019-01-29T23:00:48.851Z,98409.50
2019-01-29T23:03:21.396Z,98402.85
2019-01-29T23:06:13.113Z,98403.30
2019-01-29T23:08:45.721Z,98402.48
2019-01-29T23:11:16.846Z,98391.25
2019-01-29T23:13:47.881Z,98381.80
2019-01-29T23:16:18.478Z,98376.39
2019-01-29T23:18:50.025Z,98380.57
2019-01-29T23:21:21.816Z,98369.70
2019-01-29T23:23:54.728Z,98368.50
2019-01-29T23:26:25.555Z,98369.02
2019-01-29T23:28:56.653Z,98366.73
2019-01-29T23:31:27.794Z,98353.88
2019-01-29T23:33:58.647Z,98351.76
2019-01-29T23:36:29.392Z,98350.91
2019-01-29T23:38:59.956Z,98355.09
2019-01-29T23:41:30.898Z,98357.11
2019-01-29T23:44:02.375Z,98355.40
2019-01-29T23:46:33.392Z,98350.32
2019-01-29T23:49:04.304Z,98342.34
2019-01-29T23:51:34.931Z,98343.98
2019-01-29T23:54:06.277Z,98328.92
2019-01-29T23:56:37.036Z,98322.31
2019-01-29T23:59:08.262Z,98314.45
